sensor_id;sensor_type;location;lat;lon;timestamp;pressure;altitude;pressure_sealevel;temperature;humidity
13434;BME280;6789;47.678;9.158;2023-06-14T00:01:26;96212.13;;;16.01;48.19
13434;BME280;6789;47.678;9.158;2023-06-14T00:06:18;96209.81;;;15.80;48.98
13434;BME280;6789;47.678;9.158;2023-06-14T00:11:10;96213.28;;;15.61;50.29
13434;BME280;6789;47.678;9.158;2023-06-14T00:16:02;96210.69;;;15.46;51.37
13434;BME280;6789;47.678;9.158;2023-06-14T00:20:56;96212.53;;;15.35;51.35
13434;BME280;6789;47.678;9.158;2023-06-14T00:25:48;96205.94;;;15.33;50.63
13434;BME280;6789;47.678;9.158;2023-06-14T00:30:39;96203.81;;;15.20;51.18
13434;BME280;6789;47.678;9.158;2023-06-14T00:35:31;96201.97;;;15.00;52.41
13434;BME280;6789;47.678;9.158;2023-06-14T00:40:23;96204.84;;;14.94;52.16
13434;BME280;6789;47.678;9.158;2023-06-14T00:45:15;96199.03;;;14.82;51.88
13434;BME280;6789;47.678;9.158;2023-06-14T00:50:08;96194.81;;;14.66;52.21
13434;BME280;6789;47.678;9.158;2023-06-14T00:55:01;96205.34;;;14.61;52.70
13434;BME280;6789;47.678;9.158;2023-06-14T00:59:53;96197.97;;;14.63;53.01
13434;BME280;6789;47.678;9.158;2023-06-14T01:04:48;96194.25;;;14.49;53.23
13434;BME280;6789;47.678;9.158;2023-06-14T01:10:02;96195.28;;;14.33;54.08
13434;BME280;6789;47.678;9.158;2023-06-14T01:15:00;96195.22;;;14.24;54.51
13434;BME280;6789;47.678;9.158;2023-06-14T01:19:53;96189.16;;;14.13;54.96
13434;BME280;6789;47.678;9.158;2023-06-14T01:24:49;96190.38;;;14.01;56.28
13434;BME280;6789;47.678;9.158;2023-06-14T01:29:43;96185.66;;;14.03;55.56
13434;BME280;6789;47.678;9.158;2023-06-14T01:34:37;96183.50;;;14.00;55.96
13434;BME280;6789;47.678;9.158;2023-06-14T01:39:30;96178.53;;;14.03;54.02
13434;BME280;6789;47.678;9.158;2023-06-14T01:44:24;96171.97;;;14.11;52.44
13434;BME280;6789;47.678;9.158;2023-06-14T01:49:16;96170.63;;;14.08;55.08
13434;BME280;6789;47.678;9.158;2023-06-14T01:54:08;96165.41;;;14.13;53.54
13434;BME280;6789;47.678;9.158;2023-06-14T01:59:00;96164.03;;;14.06;54.78
13434;BME280;6789;47.678;9.158;2023-06-14T02:03:51;96164.00;;;13.91;56.11
13434;BME280;6789;47.678;9.158;2023-06-14T02:08:45;96178.13;;;13.70;56.30
13434;BME280;6789;47.678;9.158;2023-06-14T02:13:37;96188.34;;;13.56;57.25
13434;BME280;6789;47.678;9.158;2023-06-14T02:18:29;96188.84;;;13.53;57.33
13434;BME280;6789;47.678;9.158;2023-06-14T02:23:21;96190.38;;;13.45;58.02
13434;BME280;6789;47.678;9.158;2023-06-14T02:28:20;96185.28;;;13.28;58.85
13434;BME280;6789;47.678;9.158;2023-06-14T02:33:12;96183.38;;;13.19;59.13
13434;BME280;6789;47.678;9.158;2023-06-14T02:38:04;96184.91;;;13.15;59.80
13434;BME280;6789;47.678;9.158;2023-06-14T02:42:56;96179.53;;;13.36;58.93
13434;BME280;6789;47.678;9.158;2023-06-14T02:47:48;96187.69;;;13.40;59.17
13434;BME280;6789;47.678;9.158;2023-06-14T02:52:40;96194.25;;;13.32;60.01
13434;BME280;6789;47.678;9.158;2023-06-14T02:57:33;96188.38;;;13.20;61.91
13434;BME280;6789;47.678;9.158;2023-06-14T03:02:25;96197.03;;;13.16;62.25
13434;BME280;6789;47.678;9.158;2023-06-14T03:07:17;96197.28;;;13.14;63.36
13434;BME280;6789;47.678;9.158;2023-06-14T03:12:11;96192.84;;;13.20;64.69
13434;BME280;6789;47.678;9.158;2023-06-14T03:17:03;96208.09;;;13.18;65.06
13434;BME280;6789;47.678;9.158;2023-06-14T03:21:56;96192.84;;;13.20;66.36
13434;BME280;6789;47.678;9.158;2023-06-14T03:26:48;96200.69;;;13.15;65.91
13434;BME280;6789;47.678;9.158;2023-06-14T03:32:00;96205.25;;;13.24;65.81
13434;BME280;6789;47.678;9.158;2023-06-14T03:36:52;96220.56;;;13.27;66.57
13434;BME280;6789;47.678;9.158;2023-06-14T03:41:44;96221.13;;;13.34;66.66
13434;BME280;6789;47.678;9.158;2023-06-14T03:46:36;96229.59;;;13.41;66.46
13434;BME280;6789;47.678;9.158;2023-06-14T03:51:28;96228.91;;;13.55;67.41
13434;BME280;6789;47.678;9.158;2023-06-14T03:56:20;96230.22;;;14.95;62.71
13434;BME280;6789;47.678;9.158;2023-06-14T04:01:11;96232.59;;;16.87;55.81
13434;BME280;6789;47.678;9.158;2023-06-14T04:06:04;96235.75;;;18.36;51.04
13434;BME280;6789;47.678;9.158;2023-06-14T04:10:57;96243.88;;;19.36;48.23
13434;BME280;6789;47.678;9.158;2023-06-14T04:15:50;96251.16;;;20.61;45.53
13434;BME280;6789;47.678;9.158;2023-06-14T04:20:42;96246.56;;;21.89;42.06
13434;BME280;6789;47.678;9.158;2023-06-14T04:25:35;96257.56;;;22.65;40.15
13434;BME280;6789;47.678;9.158;2023-06-14T04:30:27;96264.91;;;23.49;38.19
13434;BME280;6789;47.678;9.158;2023-06-14T04:35:23;96260.56;;;24.07;36.56
13434;BME280;6789;47.678;9.158;2023-06-14T04:40:23;96269.66;;;24.60;36.05
13434;BME280;6789;47.678;9.158;2023-06-14T04:45:15;96265.00;;;26.44;32.49
13434;BME280;6789;47.678;9.158;2023-06-14T04:50:10;96268.44;;;26.80;31.53
13434;BME280;6789;47.678;9.158;2023-06-14T04:55:03;96261.44;;;28.52;27.75
13434;BME280;6789;47.678;9.158;2023-06-14T04:59:55;96269.34;;;28.76;26.60
13434;BME280;6789;47.678;9.158;2023-06-14T05:04:49;96271.03;;;29.49;25.83
13434;BME280;6789;47.678;9.158;2023-06-14T05:09:41;96277.03;;;29.39;25.11
13434;BME280;6789;47.678;9.158;2023-06-14T05:14:47;96277.31;;;29.90;24.54
13434;BME280;6789;47.678;9.158;2023-06-14T05:19:47;96276.38;;;29.45;25.09
13434;BME280;6789;47.678;9.158;2023-06-14T05:24:39;96274.53;;;30.06;24.35
13434;BME280;6789;47.678;9.158;2023-06-14T05:29:32;96277.53;;;30.01;25.21
13434;BME280;6789;47.678;9.158;2023-06-14T05:34:24;96286.00;;;29.80;24.60
13434;BME280;6789;47.678;9.158;2023-06-14T05:39:30;96286.81;;;30.22;24.17
13434;BME280;6789;47.678;9.158;2023-06-14T05:44:24;96286.50;;;29.48;25.40
13434;BME280;6789;47.678;9.158;2023-06-14T05:49:18;96297.91;;;28.61;25.88
13434;BME280;6789;47.678;9.158;2023-06-14T05:54:24;96298.06;;;28.22;26.97
13434;BME280;6789;47.678;9.158;2023-06-14T05:59:31;96291.38;;;28.31;27.43
13434;BME280;6789;47.678;9.158;2023-06-14T06:04:26;96303.16;;;28.54;26.84
13434;BME280;6789;47.678;9.158;2023-06-14T06:09:19;96306.78;;;28.31;27.37
13434;BME280;6789;47.678;9.158;2023-06-14T06:14:12;96310.75;;;26.80;28.46
13434;BME280;6789;47.678;9.158;2023-06-14T06:19:04;96321.94;;;27.42;28.30
13434;BME280;6789;47.678;9.158;2023-06-14T06:23:55;96315.38;;;25.01;29.71
13434;BME280;6789;47.678;9.158;2023-06-14T06:28:48;96318.94;;;23.76;30.94
13434;BME280;6789;47.678;9.158;2023-06-14T06:33:43;96317.50;;;22.04;33.27
13434;BME280;6789;47.678;9.158;2023-06-14T06:38:37;96321.91;;;22.30;33.90
13434;BME280;6789;47.678;9.158;2023-06-14T06:43:30;96330.22;;;22.59;33.35
13434;BME280;6789;47.678;9.158;2023-06-14T06:48:23;96324.03;;;22.50;34.37
13434;BME280;6789;47.678;9.158;2023-06-14T06:53:24;96336.41;;;22.16;34.53
13434;BME280;6789;47.678;9.158;2023-06-14T06:58:32;96334.00;;;22.06;34.19
13434;BME280;6789;47.678;9.158;2023-06-14T07:03:25;96342.09;;;21.70;35.06
13434;BME280;6789;47.678;9.158;2023-06-14T07:08:18;96339.69;;;22.34;33.88
13434;BME280;6789;47.678;9.158;2023-06-14T07:13:24;96344.13;;;22.39;33.99
13434;BME280;6789;47.678;9.158;2023-06-14T07:18:30;96339.47;;;23.00;33.36
13434;BME280;6789;47.678;9.158;2023-06-14T07:23:26;96348.06;;;22.80;33.00
13434;BME280;6789;47.678;9.158;2023-06-14T07:28:32;96346.50;;;22.49;34.32
13434;BME280;6789;47.678;9.158;2023-06-14T07:33:31;96343.19;;;23.55;32.68
13434;BME280;6789;47.678;9.158;2023-06-14T07:38:37;96351.91;;;23.04;33.54
13434;BME280;6789;47.678;9.158;2023-06-14T07:43:30;96344.75;;;23.47;33.29
13434;BME280;6789;47.678;9.158;2023-06-14T07:48:30;96348.69;;;23.41;33.06
13434;BME280;6789;47.678;9.158;2023-06-14T07:53:22;96343.16;;;23.21;33.91
13434;BME280;6789;47.678;9.158;2023-06-14T07:58:14;96342.25;;;23.59;33.66
13434;BME280;6789;47.678;9.158;2023-06-14T08:03:10;96348.84;;;23.45;31.69
13434;BME280;6789;47.678;9.158;2023-06-14T08:08:03;96345.03;;;23.20;33.56
13434;BME280;6789;47.678;9.158;2023-06-14T08:12:55;96333.72;;;23.57;32.97
13434;BME280;6789;47.678;9.158;2023-06-14T08:18:01;96338.78;;;23.33;32.42
13434;BME280;6789;47.678;9.158;2023-06-14T08:22:53;96340.19;;;23.39;31.63
13434;BME280;6789;47.678;9.158;2023-06-14T08:27:48;96335.94;;;23.64;31.92
13434;BME280;6789;47.678;9.158;2023-06-14T08:32:41;96337.28;;;24.29;31.65
13434;BME280;6789;47.678;9.158;2023-06-14T08:37:33;96342.72;;;23.95;31.45
13434;BME280;6789;47.678;9.158;2023-06-14T08:42:54;96355.50;;;23.73;31.44
13434;BME280;6789;47.678;9.158;2023-06-14T08:48:02;96345.56;;;23.90;30.62
13434;BME280;6789;47.678;9.158;2023-06-14T08:53:06;96355.81;;;23.88;30.26
13434;BME280;6789;47.678;9.158;2023-06-14T08:58:21;96355.16;;;24.08;30.18
13434;BME280;6789;47.678;9.158;2023-06-14T09:03:18;96376.44;;;24.04;29.03
13434;BME280;6789;47.678;9.158;2023-06-14T09:08:52;96358.31;;;23.93;29.35
13434;BME280;6789;47.678;9.158;2023-06-14T09:14:27;96350.13;;;23.89;30.73
13434;BME280;6789;47.678;9.158;2023-06-14T09:19:38;96354.78;;;24.26;29.37
13434;BME280;6789;47.678;9.158;2023-06-14T09:24:48;96352.81;;;23.64;29.66
13434;BME280;6789;47.678;9.158;2023-06-14T09:29:54;96352.13;;;24.18;30.33
13434;BME280;6789;47.678;9.158;2023-06-14T09:35:00;96357.00;;;24.33;29.32
13434;BME280;6789;47.678;9.158;2023-06-14T09:39:59;96364.91;;;24.21;27.88
13434;BME280;6789;47.678;9.158;2023-06-14T09:45:08;96352.09;;;24.35;28.95
13434;BME280;6789;47.678;9.158;2023-06-14T09:50:16;96363.66;;;24.72;29.40
13434;BME280;6789;47.678;9.158;2023-06-14T09:55:25;96354.16;;;24.29;28.22
13434;BME280;6789;47.678;9.158;2023-06-14T10:00:34;96356.00;;;24.37;28.73
13434;BME280;6789;47.678;9.158;2023-06-14T10:10:49;96351.34;;;24.26;29.33
13434;BME280;6789;47.678;9.158;2023-06-14T10:21:37;96363.09;;;24.58;28.17
13434;BME280;6789;47.678;9.158;2023-06-14T10:26:54;96353.66;;;24.44;29.02
13434;BME280;6789;47.678;9.158;2023-06-14T10:32:03;96350.72;;;24.74;28.86
13434;BME280;6789;47.678;9.158;2023-06-14T10:37:14;96350.13;;;24.98;28.27
13434;BME280;6789;47.678;9.158;2023-06-14T10:43:21;96349.34;;;24.97;27.97
13434;BME280;6789;47.678;9.158;2023-06-14T10:49:06;96340.38;;;24.93;28.68
13434;BME280;6789;47.678;9.158;2023-06-14T10:54:21;96342.47;;;25.17;28.16
13434;BME280;6789;47.678;9.158;2023-06-14T10:59:39;96353.25;;;25.37;28.45
13434;BME280;6789;47.678;9.158;2023-06-14T11:05:15;96344.22;;;24.84;28.93
13434;BME280;6789;47.678;9.158;2023-06-14T11:10:36;96344.09;;;25.01;28.83
13434;BME280;6789;47.678;9.158;2023-06-14T11:16:47;96338.50;;;25.43;28.06
13434;BME280;6789;47.678;9.158;2023-06-14T11:22:13;96335.34;;;25.61;27.37
13434;BME280;6789;47.678;9.158;2023-06-14T11:27:33;96335.97;;;25.46;27.74
13434;BME280;6789;47.678;9.158;2023-06-14T11:32:57;96341.72;;;25.57;28.19
13434;BME280;6789;47.678;9.158;2023-06-14T11:38:04;96339.28;;;25.43;27.62
13434;BME280;6789;47.678;9.158;2023-06-14T11:43:44;96330.50;;;25.14;28.73
13434;BME280;6789;47.678;9.158;2023-06-14T11:49:34;96329.28;;;25.32;28.84
13434;BME280;6789;47.678;9.158;2023-06-14T11:55:08;96318.00;;;25.59;27.40
13434;BME280;6789;47.678;9.158;2023-06-14T12:00:16;96328.44;;;26.13;26.89
13434;BME280;6789;47.678;9.158;2023-06-14T12:05:24;96318.75;;;25.19;28.00
13434;BME280;6789;47.678;9.158;2023-06-14T12:10:40;96328.28;;;25.36;28.00
13434;BME280;6789;47.678;9.158;2023-06-14T12:15:56;96307.97;;;25.68;27.24
13434;BME280;6789;47.678;9.158;2023-06-14T12:21:09;96319.22;;;26.02;27.81
13434;BME280;6789;47.678;9.158;2023-06-14T12:26:19;96316.56;;;26.14;27.22
13434;BME280;6789;47.678;9.158;2023-06-14T12:31:27;96308.34;;;26.43;26.94
13434;BME280;6789;47.678;9.158;2023-06-14T12:36:40;96310.56;;;25.96;27.11
13434;BME280;6789;47.678;9.158;2023-06-14T12:41:51;96307.75;;;26.25;27.10
13434;BME280;6789;47.678;9.158;2023-06-14T12:46:57;96308.00;;;26.32;27.62
13434;BME280;6789;47.678;9.158;2023-06-14T12:51:51;96314.06;;;25.77;27.21
13434;BME280;6789;47.678;9.158;2023-06-14T12:56:46;96319.34;;;25.65;28.62
13434;BME280;6789;47.678;9.158;2023-06-14T13:01:53;96312.34;;;25.93;27.31
13434;BME280;6789;47.678;9.158;2023-06-14T13:06:53;96312.19;;;26.54;27.46
13434;BME280;6789;47.678;9.158;2023-06-14T13:11:59;96319.94;;;26.55;26.99
13434;BME280;6789;47.678;9.158;2023-06-14T13:17:10;96320.06;;;26.59;26.99
13434;BME280;6789;47.678;9.158;2023-06-14T13:22:18;96328.34;;;26.21;27.37
13434;BME280;6789;47.678;9.158;2023-06-14T13:27:26;96328.44;;;25.60;28.43
13434;BME280;6789;47.678;9.158;2023-06-14T13:32:33;96311.16;;;26.02;28.21
13434;BME280;6789;47.678;9.158;2023-06-14T13:37:39;96303.03;;;26.34;27.69
13434;BME280;6789;47.678;9.158;2023-06-14T13:43:05;96312.53;;;26.64;27.01
13434;BME280;6789;47.678;9.158;2023-06-14T13:48:32;96311.63;;;26.60;27.50
13434;BME280;6789;47.678;9.158;2023-06-14T13:54:08;96309.56;;;26.01;29.01
13434;BME280;6789;47.678;9.158;2023-06-14T13:59:16;96306.16;;;26.12;28.69
13434;BME280;6789;47.678;9.158;2023-06-14T14:04:23;96304.19;;;26.45;28.03
13434;BME280;6789;47.678;9.158;2023-06-14T14:09:38;96300.09;;;26.15;27.87
13434;BME280;6789;47.678;9.158;2023-06-14T14:15:39;96309.91;;;25.99;28.09
13434;BME280;6789;47.678;9.158;2023-06-14T14:20:48;96302.47;;;25.64;28.85
13434;BME280;6789;47.678;9.158;2023-06-14T14:25:54;96296.97;;;26.13;28.25
13434;BME280;6789;47.678;9.158;2023-06-14T14:31:01;96295.25;;;26.53;28.43
13434;BME280;6789;47.678;9.158;2023-06-14T14:36:07;96297.94;;;26.53;28.37
13434;BME280;6789;47.678;9.158;2023-06-14T14:41:14;96303.44;;;26.57;28.02
13434;BME280;6789;47.678;9.158;2023-06-14T14:46:20;96305.78;;;26.46;27.97
13434;BME280;6789;47.678;9.158;2023-06-14T14:51:43;96308.25;;;26.51;28.13
13434;BME280;6789;47.678;9.158;2023-06-14T14:57:00;96315.91;;;25.85;28.69
13434;BME280;6789;47.678;9.158;2023-06-14T15:02:20;96313.41;;;26.12;28.43
13434;BME280;6789;47.678;9.158;2023-06-14T15:07:27;96317.19;;;25.99;28.09
13434;BME280;6789;47.678;9.158;2023-06-14T15:12:35;96305.91;;;26.05;27.62
13434;BME280;6789;47.678;9.158;2023-06-14T15:17:51;96311.91;;;25.50;28.17
13434;BME280;6789;47.678;9.158;2023-06-14T15:22:56;96309.88;;;25.88;28.19
13434;BME280;6789;47.678;9.158;2023-06-14T15:28:05;96306.28;;;25.95;27.79
13434;BME280;6789;47.678;9.158;2023-06-14T15:33:12;96309.41;;;26.18;27.26
13434;BME280;6789;47.678;9.158;2023-06-14T15:38:20;96308.41;;;26.34;26.95
13434;BME280;6789;47.678;9.158;2023-06-14T15:43:12;96307.94;;;26.20;27.53
13434;BME280;6789;47.678;9.158;2023-06-14T15:48:16;96301.97;;;26.03;28.29
13434;BME280;6789;47.678;9.158;2023-06-14T15:53:22;96297.00;;;25.73;28.41
13434;BME280;6789;47.678;9.158;2023-06-14T15:58:15;96294.66;;;25.92;27.48
13434;BME280;6789;47.678;9.158;2023-06-14T16:03:21;96301.50;;;26.01;27.92
13434;BME280;6789;47.678;9.158;2023-06-14T16:08:13;96296.44;;;25.88;27.93
13434;BME280;6789;47.678;9.158;2023-06-14T16:13:28;96296.56;;;25.91;28.03
13434;BME280;6789;47.678;9.158;2023-06-14T16:18:22;96292.00;;;26.03;28.39
13434;BME280;6789;47.678;9.158;2023-06-14T16:23:14;96308.19;;;25.83;27.93
13434;BME280;6789;47.678;9.158;2023-06-14T16:28:19;96304.16;;;25.69;28.26
13434;BME280;6789;47.678;9.158;2023-06-14T16:33:11;96312.63;;;25.59;27.72
13434;BME280;6789;47.678;9.158;2023-06-14T16:38:03;96316.22;;;25.63;27.88
13434;BME280;6789;47.678;9.158;2023-06-14T16:42:55;96311.44;;;25.48;28.45
13434;BME280;6789;47.678;9.158;2023-06-14T16:47:47;96328.59;;;25.55;28.56
13434;BME280;6789;47.678;9.158;2023-06-14T16:52:39;96314.53;;;25.58;27.61
13434;BME280;6789;47.678;9.158;2023-06-14T16:57:30;96327.50;;;25.56;27.54
13434;BME280;6789;47.678;9.158;2023-06-14T17:02:22;96333.47;;;25.41;28.10
13434;BME280;6789;47.678;9.158;2023-06-14T17:07:28;96344.84;;;25.38;27.77
13434;BME280;6789;47.678;9.158;2023-06-14T17:12:20;96339.47;;;25.59;27.55
13434;BME280;6789;47.678;9.158;2023-06-14T17:17:19;96338.66;;;25.46;29.78
13434;BME280;6789;47.678;9.158;2023-06-14T17:22:12;96347.13;;;25.28;29.26
13434;BME280;6789;47.678;9.158;2023-06-14T17:27:07;96352.13;;;25.38;29.73
13434;BME280;6789;47.678;9.158;2023-06-14T17:31:59;96356.13;;;25.32;29.72
13434;BME280;6789;47.678;9.158;2023-06-14T17:37:05;96357.44;;;25.26;30.50
13434;BME280;6789;47.678;9.158;2023-06-14T17:42:11;96362.53;;;25.19;30.21
13434;BME280;6789;47.678;9.158;2023-06-14T17:47:19;96371.63;;;25.26;30.40
13434;BME280;6789;47.678;9.158;2023-06-14T17:52:27;96379.66;;;24.98;31.30
13434;BME280;6789;47.678;9.158;2023-06-14T17:57:21;96383.69;;;24.75;31.38
13434;BME280;6789;47.678;9.158;2023-06-14T18:02:16;96393.69;;;24.66;31.23
13434;BME280;6789;47.678;9.158;2023-06-14T18:07:23;96391.78;;;24.66;32.20
13434;BME280;6789;47.678;9.158;2023-06-14T18:12:18;96395.00;;;24.51;32.20
13434;BME280;6789;47.678;9.158;2023-06-14T18:17:10;96410.31;;;24.26;33.07
13434;BME280;6789;47.678;9.158;2023-06-14T18:22:06;96414.44;;;24.15;34.03
13434;BME280;6789;47.678;9.158;2023-06-14T18:26:58;96414.88;;;24.17;33.38
13434;BME280;6789;47.678;9.158;2023-06-14T18:31:52;96416.81;;;24.08;33.81
13434;BME280;6789;47.678;9.158;2023-06-14T18:36:44;96423.72;;;24.00;33.53
13434;BME280;6789;47.678;9.158;2023-06-14T18:41:36;96428.59;;;23.73;34.11
13434;BME280;6789;47.678;9.158;2023-06-14T18:46:46;96434.09;;;23.68;34.01
13434;BME280;6789;47.678;9.158;2023-06-14T18:51:53;96439.13;;;23.61;34.21
13434;BME280;6789;47.678;9.158;2023-06-14T18:56:58;96441.47;;;23.54;34.15
13434;BME280;6789;47.678;9.158;2023-06-14T19:01:51;96440.53;;;23.50;34.56
13434;BME280;6789;47.678;9.158;2023-06-14T19:06:57;96439.69;;;23.41;34.52
13434;BME280;6789;47.678;9.158;2023-06-14T19:12:06;96444.41;;;23.27;34.98
13434;BME280;6789;47.678;9.158;2023-06-14T19:17:03;96439.44;;;23.04;35.71
13434;BME280;6789;47.678;9.158;2023-06-14T19:21:57;96455.50;;;22.82;36.77
13434;BME280;6789;47.678;9.158;2023-06-14T19:27:03;96460.91;;;22.60;38.46
13434;BME280;6789;47.678;9.158;2023-06-14T19:31:55;96471.38;;;22.48;38.34
13434;BME280;6789;47.678;9.158;2023-06-14T19:36:47;96473.72;;;22.28;38.83
13434;BME280;6789;47.678;9.158;2023-06-14T19:41:39;96483.44;;;22.24;40.25
13434;BME280;6789;47.678;9.158;2023-06-14T19:46:45;96493.50;;;22.05;40.25
13434;BME280;6789;47.678;9.158;2023-06-14T19:51:38;96495.44;;;21.91;40.13
13434;BME280;6789;47.678;9.158;2023-06-14T19:56:34;96511.88;;;21.71;40.53
13434;BME280;6789;47.678;9.158;2023-06-14T20:01:27;96507.75;;;21.65;40.88
13434;BME280;6789;47.678;9.158;2023-06-14T20:06:20;96526.50;;;21.47;42.00
13434;BME280;6789;47.678;9.158;2023-06-14T20:11:26;96532.63;;;21.21;42.66
13434;BME280;6789;47.678;9.158;2023-06-14T20:16:19;96524.88;;;21.06;43.08
13434;BME280;6789;47.678;9.158;2023-06-14T20:21:12;96534.97;;;20.95;43.07
13434;BME280;6789;47.678;9.158;2023-06-14T20:26:18;96539.47;;;20.82;43.46
13434;BME280;6789;47.678;9.158;2023-06-14T20:31:23;96539.69;;;20.67;43.92
13434;BME280;6789;47.678;9.158;2023-06-14T20:36:16;96538.41;;;20.64;44.16
13434;BME280;6789;47.678;9.158;2023-06-14T20:41:09;96544.31;;;20.61;43.85
13434;BME280;6789;47.678;9.158;2023-06-14T20:46:09;96556.72;;;20.52;43.72
13434;BME280;6789;47.678;9.158;2023-06-14T20:51:17;96553.53;;;20.50;43.83
13434;BME280;6789;47.678;9.158;2023-06-14T20:56:10;96551.81;;;20.41;44.68
13434;BME280;6789;47.678;9.158;2023-06-14T21:01:04;96551.91;;;20.36;43.59
13434;BME280;6789;47.678;9.158;2023-06-14T21:05:58;96553.72;;;20.40;42.96
13434;BME280;6789;47.678;9.158;2023-06-14T21:10:56;96562.22;;;20.24;43.84
13434;BME280;6789;47.678;9.158;2023-06-14T21:15:51;96553.16;;;20.25;43.24
13434;BME280;6789;47.678;9.158;2023-06-14T21:20:42;96561.47;;;20.18;43.18
13434;BME280;6789;47.678;9.158;2023-06-14T21:25:34;96562.59;;;20.17;42.97
13434;BME280;6789;47.678;9.158;2023-06-14T21:30:34;96554.06;;;20.15;43.54
13434;BME280;6789;47.678;9.158;2023-06-14T21:35:27;96561.13;;;20.07;43.71
13434;BME280;6789;47.678;9.158;2023-06-14T21:40:19;96565.44;;;20.03;43.77
13434;BME280;6789;47.678;9.158;2023-06-14T21:45:12;96566.53;;;20.02;43.44
13434;BME280;6789;47.678;9.158;2023-06-14T21:50:05;96571.44;;;19.90;43.56
13434;BME280;6789;47.678;9.158;2023-06-14T21:54:57;96579.50;;;19.85;43.55
13434;BME280;6789;47.678;9.158;2023-06-14T21:59:49;96580.56;;;19.84;44.13
13434;BME280;6789;47.678;9.158;2023-06-14T22:04:42;96571.91;;;19.73;44.21
13434;BME280;6789;47.678;9.158;2023-06-14T22:09:34;96576.56;;;19.63;44.87
13434;BME280;6789;47.678;9.158;2023-06-14T22:14:26;96572.66;;;19.55;45.08
13434;BME280;6789;47.678;9.158;2023-06-14T22:19:21;96570.13;;;19.45;45.65
13434;BME280;6789;47.678;9.158;2023-06-14T22:24:13;96566.78;;;19.35;45.94
13434;BME280;6789;47.678;9.158;2023-06-14T22:29:06;96562.09;;;19.27;46.47
13434;BME280;6789;47.678;9.158;2023-06-14T22:34:05;96563.56;;;19.15;46.69
13434;BME280;6789;47.678;9.158;2023-06-14T22:39:13;96563.13;;;19.03;47.23
13434;BME280;6789;47.678;9.158;2023-06-14T22:44:23;96570.09;;;18.94;47.58
13434;BME280;6789;47.678;9.158;2023-06-14T22:49:29;96566.19;;;18.86;47.34
13434;BME280;6789;47.678;9.158;2023-06-14T22:54:28;96566.25;;;18.81;47.47
13434;BME280;6789;47.678;9.158;2023-06-14T22:59:28;96566.66;;;18.93;47.17
13434;BME280;6789;47.678;9.158;2023-06-14T23:04:34;96572.09;;;18.78;47.13
13434;BME280;6789;47.678;9.158;2023-06-14T23:09:26;96572.16;;;18.73;47.57
13434;BME280;6789;47.678;9.158;2023-06-14T23:14:18;96575.94;;;18.67;47.73
13434;BME280;6789;47.678;9.158;2023-06-14T23:19:10;96570.56;;;18.72;47.24
13434;BME280;6789;47.678;9.158;2023-06-14T23:24:01;96578.88;;;18.66;48.08
13434;BME280;6789;47.678;9.158;2023-06-14T23:28:54;96565.41;;;18.53;48.73
13434;BME280;6789;47.678;9.158;2023-06-14T23:33:47;96566.03;;;18.45;48.99
13434;BME280;6789;47.678;9.158;2023-06-14T23:38:44;96572.69;;;18.37;49.31
13434;BME280;6789;47.678;9.158;2023-06-14T23:43:43;96576.25;;;18.23;50.79
13434;BME280;6789;47.678;9.158;2023-06-14T23:48:38;96584.81;;;18.05;51.52
13434;BME280;6789;47.678;9.158;2023-06-14T23:53:31;96578.03;;;17.84;52.60
13434;BME280;6789;47.678;9.158;2023-06-14T23:58:25;96577.88;;;17.61;53.90
